sensor_id;sensor_type;location;lat;lon;timestamp;P1;durP1;ratioP1;P2;durP2;ratioP2
14754;SDS011;7469;50.906;6.952;2024-01-15T00:00:38;29.13;;;16.23;;
14754;SDS011;7469;50.906;6.952;2024-01-15T00:03:06;32.27;;;15.63;;
14754;SDS011;7469;50.906;6.952;2024-01-15T00:05:34;30.00;;;15.97;;
14754;SDS011;7469;50.906;6.952;2024-01-15T00:08:03;34.83;;;16.33;;
14754;SDS011;7469;50.906;6.952;2024-01-15T00:10:31;34.27;;;16.60;;
14754;SDS011;7469;50.906;6.952;2024-01-15T00:12:59;32.90;;;16.03;;
14754;SDS011;7469;50.906;6.952;2024-01-15T00:15:27;31.33;;;16.30;;
14754;SDS011;7469;50.906;6.952;2024-01-15T00:17:57;32.67;;;16.83;;
14754;SDS011;7469;50.906;6.952;2024-01-15T00:20:25;29.63;;;15.17;;
14754;SDS011;7469;50.906;6.952;2024-01-15T00:22:58;31.90;;;16.10;;
14754;SDS011;7469;50.906;6.952;2024-01-15T00:25:26;28.73;;;16.20;;
14754;SDS011;7469;50.906;6.952;2024-01-15T00:27:53;37.20;;;17.90;;
14754;SDS011;7469;50.906;6.952;2024-01-15T00:30:21;31.13;;;16.00;;
14754;SDS011;7469;50.906;6.952;2024-01-15T00:32:49;36.47;;;16.47;;
14754;SDS011;7469;50.906;6.952;2024-01-15T00:35:19;37.40;;;18.37;;
14754;SDS011;7469;50.906;6.952;2024-01-15T00:37:47;32.57;;;16.63;;
14754;SDS011;7469;50.906;6.952;2024-01-15T00:40:15;33.53;;;17.87;;
14754;SDS011;7469;50.906;6.952;2024-01-15T00:42:43;34.97;;;17.50;;
14754;SDS011;7469;50.906;6.952;2024-01-15T00:45:11;36.67;;;17.60;;
14754;SDS011;7469;50.906;6.952;2024-01-15T00:47:39;32.40;;;17.07;;
14754;SDS011;7469;50.906;6.952;2024-01-15T00:50:07;39.67;;;18.40;;
14754;SDS011;7469;50.906;6.952;2024-01-15T00:52:37;40.20;;;18.20;;
14754;SDS011;7469;50.906;6.952;2024-01-15T00:55:05;34.13;;;17.90;;
14754;SDS011;7469;50.906;6.952;2024-01-15T00:57:34;42.63;;;18.17;;
14754;SDS011;7469;50.906;6.952;2024-01-15T01:00:02;36.43;;;17.90;;
14754;SDS011;7469;50.906;6.952;2024-01-15T01:02:32;35.50;;;17.77;;
14754;SDS011;7469;50.906;6.952;2024-01-15T01:05:00;37.57;;;17.73;;
14754;SDS011;7469;50.906;6.952;2024-01-15T01:07:28;37.13;;;17.73;;
14754;SDS011;7469;50.906;6.952;2024-01-15T01:09:58;35.87;;;17.53;;
14754;SDS011;7469;50.906;6.952;2024-01-15T01:12:26;38.90;;;18.67;;
14754;SDS011;7469;50.906;6.952;2024-01-15T01:14:54;37.63;;;18.20;;
14754;SDS011;7469;50.906;6.952;2024-01-15T01:17:22;38.03;;;17.70;;
14754;SDS011;7469;50.906;6.952;2024-01-15T01:19:50;39.70;;;18.07;;
14754;SDS011;7469;50.906;6.952;2024-01-15T01:22:18;38.27;;;17.20;;
14754;SDS011;7469;50.906;6.952;2024-01-15T01:24:46;39.53;;;17.90;;
14754;SDS011;7469;50.906;6.952;2024-01-15T01:27:16;35.57;;;17.10;;
14754;SDS011;7469;50.906;6.952;2024-01-15T01:29:44;36.43;;;17.53;;
14754;SDS011;7469;50.906;6.952;2024-01-15T01:32:12;36.07;;;16.80;;
14754;SDS011;7469;50.906;6.952;2024-01-15T01:34:40;34.90;;;18.23;;
14754;SDS011;7469;50.906;6.952;2024-01-15T01:37:09;39.87;;;19.17;;
14754;SDS011;7469;50.906;6.952;2024-01-15T01:39:39;42.00;;;18.93;;
14754;SDS011;7469;50.906;6.952;2024-01-15T01:42:07;37.90;;;18.43;;
14754;SDS011;7469;50.906;6.952;2024-01-15T01:44:36;36.83;;;18.13;;
14754;SDS011;7469;50.906;6.952;2024-01-15T01:47:04;42.40;;;19.17;;
14754;SDS011;7469;50.906;6.952;2024-01-15T01:49:33;33.67;;;18.50;;
14754;SDS011;7469;50.906;6.952;2024-01-15T01:52:05;37.67;;;18.47;;
14754;SDS011;7469;50.906;6.952;2024-01-15T01:54:33;42.10;;;19.20;;
14754;SDS011;7469;50.906;6.952;2024-01-15T01:57:03;32.87;;;18.10;;
14754;SDS011;7469;50.906;6.952;2024-01-15T01:59:32;41.43;;;19.63;;
14754;SDS011;7469;50.906;6.952;2024-01-15T02:02:03;37.57;;;18.50;;
14754;SDS011;7469;50.906;6.952;2024-01-15T02:04:31;39.00;;;18.50;;
14754;SDS011;7469;50.906;6.952;2024-01-15T02:07:00;42.63;;;18.87;;
14754;SDS011;7469;50.906;6.952;2024-01-15T02:09:28;37.97;;;18.13;;
14754;SDS011;7469;50.906;6.952;2024-01-15T02:11:56;33.63;;;17.53;;
14754;SDS011;7469;50.906;6.952;2024-01-15T02:14:24;36.57;;;18.57;;
14754;SDS011;7469;50.906;6.952;2024-01-15T02:16:52;39.07;;;18.00;;
14754;SDS011;7469;50.906;6.952;2024-01-15T02:19:21;35.13;;;18.77;;
14754;SDS011;7469;50.906;6.952;2024-01-15T02:21:50;37.40;;;17.63;;
14754;SDS011;7469;50.906;6.952;2024-01-15T02:24:19;36.43;;;17.33;;
14754;SDS011;7469;50.906;6.952;2024-01-15T02:26:47;38.57;;;19.33;;
14754;SDS011;7469;50.906;6.952;2024-01-15T02:29:15;38.37;;;18.93;;
14754;SDS011;7469;50.906;6.952;2024-01-15T02:31:44;40.17;;;19.83;;
14754;SDS011;7469;50.906;6.952;2024-01-15T02:34:12;35.73;;;17.57;;
14754;SDS011;7469;50.906;6.952;2024-01-15T02:36:40;33.67;;;17.83;;
14754;SDS011;7469;50.906;6.952;2024-01-15T02:39:08;36.00;;;18.47;;
14754;SDS011;7469;50.906;6.952;2024-01-15T02:41:38;33.13;;;17.43;;
14754;SDS011;7469;50.906;6.952;2024-01-15T02:44:05;37.33;;;18.67;;
14754;SDS011;7469;50.906;6.952;2024-01-15T02:46:33;41.60;;;19.27;;
14754;SDS011;7469;50.906;6.952;2024-01-15T02:49:01;33.50;;;18.00;;
14754;SDS011;7469;50.906;6.952;2024-01-15T02:51:30;36.17;;;17.67;;
14754;SDS011;7469;50.906;6.952;2024-01-15T02:53:58;33.53;;;17.57;;
14754;SDS011;7469;50.906;6.952;2024-01-15T02:56:26;32.37;;;17.93;;
14754;SDS011;7469;50.906;6.952;2024-01-15T02:58:55;39.17;;;18.77;;
14754;SDS011;7469;50.906;6.952;2024-01-15T03:01:23;34.57;;;18.17;;
14754;SDS011;7469;50.906;6.952;2024-01-15T03:03:51;30.83;;;17.30;;
14754;SDS011;7469;50.906;6.952;2024-01-15T03:06:21;35.33;;;17.50;;
14754;SDS011;7469;50.906;6.952;2024-01-15T03:08:49;36.43;;;18.63;;
14754;SDS011;7469;50.906;6.952;2024-01-15T03:11:17;34.40;;;17.43;;
14754;SDS011;7469;50.906;6.952;2024-01-15T03:13:45;33.87;;;17.10;;
14754;SDS011;7469;50.906;6.952;2024-01-15T03:16:14;31.00;;;16.90;;
14754;SDS011;7469;50.906;6.952;2024-01-15T03:18:42;32.40;;;17.63;;
14754;SDS011;7469;50.906;6.952;2024-01-15T03:21:10;27.67;;;16.33;;
14754;SDS011;7469;50.906;6.952;2024-01-15T03:23:38;34.00;;;17.80;;
14754;SDS011;7469;50.906;6.952;2024-01-15T03:26:06;34.60;;;17.47;;
14754;SDS011;7469;50.906;6.952;2024-01-15T03:28:34;31.30;;;17.03;;
14754;SDS011;7469;50.906;6.952;2024-01-15T03:31:02;31.23;;;16.93;;
14754;SDS011;7469;50.906;6.952;2024-01-15T03:33:32;28.13;;;17.53;;
14754;SDS011;7469;50.906;6.952;2024-01-15T03:36:00;36.23;;;17.60;;
14754;SDS011;7469;50.906;6.952;2024-01-15T03:38:28;29.07;;;16.67;;
14754;SDS011;7469;50.906;6.952;2024-01-15T03:40:56;31.30;;;17.03;;
14754;SDS011;7469;50.906;6.952;2024-01-15T03:43:24;34.03;;;18.20;;
14754;SDS011;7469;50.906;6.952;2024-01-15T03:45:54;34.07;;;18.07;;
14754;SDS011;7469;50.906;6.952;2024-01-15T03:48:22;32.83;;;18.73;;
14754;SDS011;7469;50.906;6.952;2024-01-15T03:50:52;34.77;;;17.90;;
14754;SDS011;7469;50.906;6.952;2024-01-15T03:53:20;34.00;;;17.93;;
14754;SDS011;7469;50.906;6.952;2024-01-15T03:55:48;32.07;;;17.67;;
14754;SDS011;7469;50.906;6.952;2024-01-15T03:58:16;30.73;;;16.87;;
14754;SDS011;7469;50.906;6.952;2024-01-15T04:00:44;34.57;;;18.90;;
14754;SDS011;7469;50.906;6.952;2024-01-15T04:03:12;31.77;;;18.40;;
14754;SDS011;7469;50.906;6.952;2024-01-15T04:05:40;32.50;;;18.43;;
14754;SDS011;7469;50.906;6.952;2024-01-15T04:08:10;30.70;;;17.40;;
14754;SDS011;7469;50.906;6.952;2024-01-15T04:10:38;31.33;;;17.03;;
14754;SDS011;7469;50.906;6.952;2024-01-15T04:13:06;32.00;;;17.23;;
14754;SDS011;7469;50.906;6.952;2024-01-15T04:15:34;32.07;;;17.30;;
14754;SDS011;7469;50.906;6.952;2024-01-15T04:18:03;32.23;;;16.93;;
14754;SDS011;7469;50.906;6.952;2024-01-15T04:20:31;34.20;;;17.50;;
14754;SDS011;7469;50.906;6.952;2024-01-15T04:22:59;30.27;;;17.23;;
14754;SDS011;7469;50.906;6.952;2024-01-15T04:25:28;31.33;;;17.17;;
14754;SDS011;7469;50.906;6.952;2024-01-15T04:27:56;26.07;;;15.10;;
14754;SDS011;7469;50.906;6.952;2024-01-15T04:30:24;32.37;;;17.87;;
14754;SDS011;7469;50.906;6.952;2024-01-15T04:32:52;29.73;;;17.47;;
14754;SDS011;7469;50.906;6.952;2024-01-15T04:35:21;33.30;;;16.53;;
14754;SDS011;7469;50.906;6.952;2024-01-15T04:37:49;32.67;;;17.30;;
14754;SDS011;7469;50.906;6.952;2024-01-15T04:40:17;29.50;;;16.20;;
14754;SDS011;7469;50.906;6.952;2024-01-15T04:42:46;32.03;;;16.40;;
14754;SDS011;7469;50.906;6.952;2024-01-15T04:45:14;33.77;;;16.70;;
14754;SDS011;7469;50.906;6.952;2024-01-15T04:47:42;31.23;;;15.60;;
14754;SDS011;7469;50.906;6.952;2024-01-15T04:50:10;27.47;;;15.57;;
14754;SDS011;7469;50.906;6.952;2024-01-15T04:52:38;27.10;;;15.10;;
14754;SDS011;7469;50.906;6.952;2024-01-15T04:55:06;28.57;;;15.53;;
14754;SDS011;7469;50.906;6.952;2024-01-15T04:57:34;29.50;;;15.20;;
14754;SDS011;7469;50.906;6.952;2024-01-15T05:00:04;24.80;;;14.80;;
14754;SDS011;7469;50.906;6.952;2024-01-15T05:02:33;28.27;;;15.40;;
14754;SDS011;7469;50.906;6.952;2024-01-15T05:05:01;25.17;;;14.70;;
14754;SDS011;7469;50.906;6.952;2024-01-15T05:07:29;24.20;;;14.07;;
14754;SDS011;7469;50.906;6.952;2024-01-15T05:09:57;24.30;;;14.80;;
14754;SDS011;7469;50.906;6.952;2024-01-15T05:12:26;27.60;;;15.17;;
14754;SDS011;7469;50.906;6.952;2024-01-15T05:14:54;27.77;;;15.57;;
14754;SDS011;7469;50.906;6.952;2024-01-15T05:17:23;23.80;;;13.47;;
14754;SDS011;7469;50.906;6.952;2024-01-15T05:19:51;28.87;;;14.53;;
14754;SDS011;7469;50.906;6.952;2024-01-15T05:22:19;24.17;;;13.67;;
14754;SDS011;7469;50.906;6.952;2024-01-15T05:24:47;23.87;;;14.13;;
14754;SDS011;7469;50.906;6.952;2024-01-15T05:27:15;22.30;;;13.43;;
14754;SDS011;7469;50.906;6.952;2024-01-15T05:29:44;25.30;;;13.50;;
14754;SDS011;7469;50.906;6.952;2024-01-15T05:32:12;20.87;;;13.27;;
14754;SDS011;7469;50.906;6.952;2024-01-15T05:34:41;23.23;;;13.53;;
14754;SDS011;7469;50.906;6.952;2024-01-15T05:37:09;23.90;;;13.47;;
14754;SDS011;7469;50.906;6.952;2024-01-15T05:39:37;23.57;;;12.67;;
14754;SDS011;7469;50.906;6.952;2024-01-15T05:42:05;20.23;;;12.27;;
14754;SDS011;7469;50.906;6.952;2024-01-15T05:44:34;20.00;;;11.73;;
14754;SDS011;7469;50.906;6.952;2024-01-15T05:47:02;17.77;;;11.80;;
14754;SDS011;7469;50.906;6.952;2024-01-15T05:49:30;27.63;;;12.77;;
14754;SDS011;7469;50.906;6.952;2024-01-15T05:52:00;22.20;;;11.50;;
14754;SDS011;7469;50.906;6.952;2024-01-15T05:54:29;18.40;;;10.40;;
14754;SDS011;7469;50.906;6.952;2024-01-15T05:56:57;19.50;;;11.77;;
14754;SDS011;7469;50.906;6.952;2024-01-15T05:59:25;17.17;;;10.93;;
14754;SDS011;7469;50.906;6.952;2024-01-15T06:01:54;17.13;;;10.70;;
14754;SDS011;7469;50.906;6.952;2024-01-15T06:04:22;18.83;;;10.27;;
14754;SDS011;7469;50.906;6.952;2024-01-15T06:06:50;19.53;;;10.37;;
14754;SDS011;7469;50.906;6.952;2024-01-15T06:09:20;18.20;;;11.37;;
14754;SDS011;7469;50.906;6.952;2024-01-15T06:11:48;18.90;;;11.63;;
14754;SDS011;7469;50.906;6.952;2024-01-15T06:14:16;18.60;;;11.60;;
14754;SDS011;7469;50.906;6.952;2024-01-15T06:16:43;19.93;;;11.57;;
14754;SDS011;7469;50.906;6.952;2024-01-15T06:19:11;22.30;;;12.00;;
14754;SDS011;7469;50.906;6.952;2024-01-15T06:21:39;20.63;;;12.87;;
14754;SDS011;7469;50.906;6.952;2024-01-15T06:24:07;19.77;;;12.30;;
14754;SDS011;7469;50.906;6.952;2024-01-15T06:26:38;19.20;;;12.23;;
14754;SDS011;7469;50.906;6.952;2024-01-15T06:29:05;20.10;;;13.17;;
14754;SDS011;7469;50.906;6.952;2024-01-15T06:31:34;26.43;;;13.73;;
14754;SDS011;7469;50.906;6.952;2024-01-15T06:34:02;20.37;;;13.00;;
14754;SDS011;7469;50.906;6.952;2024-01-15T06:36:31;21.97;;;13.10;;
14754;SDS011;7469;50.906;6.952;2024-01-15T06:38:59;22.90;;;14.00;;
14754;SDS011;7469;50.906;6.952;2024-01-15T06:41:26;20.80;;;12.43;;
14754;SDS011;7469;50.906;6.952;2024-01-15T06:43:56;21.90;;;14.27;;
14754;SDS011;7469;50.906;6.952;2024-01-15T06:46:24;21.70;;;13.63;;
14754;SDS011;7469;50.906;6.952;2024-01-15T06:48:52;20.97;;;13.03;;
14754;SDS011;7469;50.906;6.952;2024-01-15T06:51:21;22.27;;;12.87;;
14754;SDS011;7469;50.906;6.952;2024-01-15T06:53:51;22.40;;;13.93;;
14754;SDS011;7469;50.906;6.952;2024-01-15T06:56:19;22.40;;;13.73;;
14754;SDS011;7469;50.906;6.952;2024-01-15T06:58:47;23.60;;;13.90;;
14754;SDS011;7469;50.906;6.952;2024-01-15T07:01:16;25.30;;;13.73;;
14754;SDS011;7469;50.906;6.952;2024-01-15T07:03:44;23.67;;;14.37;;
14754;SDS011;7469;50.906;6.952;2024-01-15T07:06:14;24.70;;;13.20;;
14754;SDS011;7469;50.906;6.952;2024-01-15T07:08:42;19.87;;;14.70;;
14754;SDS011;7469;50.906;6.952;2024-01-15T07:11:10;18.73;;;13.30;;
14754;SDS011;7469;50.906;6.952;2024-01-15T07:13:38;21.93;;;14.57;;
14754;SDS011;7469;50.906;6.952;2024-01-15T07:16:06;21.03;;;13.13;;
14754;SDS011;7469;50.906;6.952;2024-01-15T07:18:35;24.50;;;13.60;;
14754;SDS011;7469;50.906;6.952;2024-01-15T07:21:03;19.37;;;13.50;;
14754;SDS011;7469;50.906;6.952;2024-01-15T07:23:31;21.33;;;12.23;;
14754;SDS011;7469;50.906;6.952;2024-01-15T07:25:59;20.03;;;13.47;;
14754;SDS011;7469;50.906;6.952;2024-01-15T07:28:28;20.73;;;13.30;;
14754;SDS011;7469;50.906;6.952;2024-01-15T07:30:56;21.53;;;13.07;;
14754;SDS011;7469;50.906;6.952;2024-01-15T07:33:25;19.47;;;12.30;;
14754;SDS011;7469;50.906;6.952;2024-01-15T07:35:55;20.17;;;12.40;;
14754;SDS011;7469;50.906;6.952;2024-01-15T07:38:26;23.93;;;13.10;;
14754;SDS011;7469;50.906;6.952;2024-01-15T07:40:54;20.27;;;13.43;;
14754;SDS011;7469;50.906;6.952;2024-01-15T07:43:22;21.70;;;14.80;;
14754;SDS011;7469;50.906;6.952;2024-01-15T07:45:50;21.83;;;14.60;;
14754;SDS011;7469;50.906;6.952;2024-01-15T07:48:18;27.70;;;13.57;;
14754;SDS011;7469;50.906;6.952;2024-01-15T07:50:47;25.07;;;14.43;;
14754;SDS011;7469;50.906;6.952;2024-01-15T07:53:17;22.93;;;14.40;;
14754;SDS011;7469;50.906;6.952;2024-01-15T07:55:45;23.70;;;14.43;;
14754;SDS011;7469;50.906;6.952;2024-01-15T07:58:13;24.63;;;15.03;;
14754;SDS011;7469;50.906;6.952;2024-01-15T08:00:42;27.20;;;14.63;;
14754;SDS011;7469;50.906;6.952;2024-01-15T08:03:11;23.40;;;15.33;;
14754;SDS011;7469;50.906;6.952;2024-01-15T08:05:39;25.03;;;13.73;;
14754;SDS011;7469;50.906;6.952;2024-01-15T08:08:07;23.03;;;15.20;;
14754;SDS011;7469;50.906;6.952;2024-01-15T08:10:36;21.07;;;13.53;;
14754;SDS011;7469;50.906;6.952;2024-01-15T08:13:05;25.97;;;15.40;;
14754;SDS011;7469;50.906;6.952;2024-01-15T08:15:34;24.93;;;14.80;;
14754;SDS011;7469;50.906;6.952;2024-01-15T08:18:02;23.80;;;14.30;;
14754;SDS011;7469;50.906;6.952;2024-01-15T08:20:30;22.47;;;14.37;;
14754;SDS011;7469;50.906;6.952;2024-01-15T08:22:58;24.23;;;14.90;;
14754;SDS011;7469;50.906;6.952;2024-01-15T08:25:26;25.93;;;14.97;;
14754;SDS011;7469;50.906;6.952;2024-01-15T08:27:55;27.20;;;15.50;;
14754;SDS011;7469;50.906;6.952;2024-01-15T08:30:23;23.67;;;14.83;;
14754;SDS011;7469;50.906;6.952;2024-01-15T08:32:54;22.77;;;14.67;;
14754;SDS011;7469;50.906;6.952;2024-01-15T08:35:27;21.33;;;14.03;;
14754;SDS011;7469;50.906;6.952;2024-01-15T08:37:55;20.43;;;13.97;;
14754;SDS011;7469;50.906;6.952;2024-01-15T08:40:24;20.70;;;13.70;;
14754;SDS011;7469;50.906;6.952;2024-01-15T08:42:52;20.00;;;12.77;;
14754;SDS011;7469;50.906;6.952;2024-01-15T08:45:22;23.43;;;14.70;;
14754;SDS011;7469;50.906;6.952;2024-01-15T08:47:50;26.20;;;14.27;;
14754;SDS011;7469;50.906;6.952;2024-01-15T08:50:19;27.97;;;15.43;;
14754;SDS011;7469;50.906;6.952;2024-01-15T08:52:47;22.37;;;14.20;;
14754;SDS011;7469;50.906;6.952;2024-01-15T08:55:15;24.97;;;13.93;;
14754;SDS011;7469;50.906;6.952;2024-01-15T08:57:43;21.67;;;13.40;;
14754;SDS011;7469;50.906;6.952;2024-01-15T09:00:11;20.70;;;13.07;;
14754;SDS011;7469;50.906;6.952;2024-01-15T09:02:42;19.30;;;12.17;;
14754;SDS011;7469;50.906;6.952;2024-01-15T09:05:10;19.23;;;12.47;;
14754;SDS011;7469;50.906;6.952;2024-01-15T09:07:38;19.50;;;11.93;;
14754;SDS011;7469;50.906;6.952;2024-01-15T09:10:07;15.40;;;10.43;;
14754;SDS011;7469;50.906;6.952;2024-01-15T09:12:35;19.27;;;10.97;;
14754;SDS011;7469;50.906;6.952;2024-01-15T09:15:03;22.73;;;11.33;;
14754;SDS011;7469;50.906;6.952;2024-01-15T09:17:32;14.83;;;9.87;;
14754;SDS011;7469;50.906;6.952;2024-01-15T09:20:02;15.57;;;8.67;;
14754;SDS011;7469;50.906;6.952;2024-01-15T09:22:31;14.60;;;8.23;;
14754;SDS011;7469;50.906;6.952;2024-01-15T09:25:00;13.60;;;7.87;;
14754;SDS011;7469;50.906;6.952;2024-01-15T09:27:28;11.47;;;8.13;;
14754;SDS011;7469;50.906;6.952;2024-01-15T09:29:56;17.53;;;7.77;;
14754;SDS011;7469;50.906;6.952;2024-01-15T09:32:24;13.20;;;7.63;;
14754;SDS011;7469;50.906;6.952;2024-01-15T09:34:52;11.00;;;7.70;;
14754;SDS011;7469;50.906;6.952;2024-01-15T09:37:21;14.50;;;8.37;;
14754;SDS011;7469;50.906;6.952;2024-01-15T09:40:11;13.50;;;7.93;;
14754;SDS011;7469;50.906;6.952;2024-01-15T09:42:41;10.37;;;8.13;;
14754;SDS011;7469;50.906;6.952;2024-01-15T09:45:09;14.07;;;8.10;;
14754;SDS011;7469;50.906;6.952;2024-01-15T09:47:38;16.57;;;8.07;;
14754;SDS011;7469;50.906;6.952;2024-01-15T09:50:12;14.53;;;8.33;;
14754;SDS011;7469;50.906;6.952;2024-01-15T09:52:42;14.07;;;8.27;;
14754;SDS011;7469;50.906;6.952;2024-01-15T09:55:11;12.20;;;7.53;;
14754;SDS011;7469;50.906;6.952;2024-01-15T09:57:41;10.77;;;6.57;;
14754;SDS011;7469;50.906;6.952;2024-01-15T10:00:12;11.13;;;6.33;;
14754;SDS011;7469;50.906;6.952;2024-01-15T10:02:42;9.67;;;6.27;;
14754;SDS011;7469;50.906;6.952;2024-01-15T10:05:10;7.87;;;5.63;;
14754;SDS011;7469;50.906;6.952;2024-01-15T10:07:38;7.83;;;5.67;;
14754;SDS011;7469;50.906;6.952;2024-01-15T10:10:09;8.93;;;5.83;;
14754;SDS011;7469;50.906;6.952;2024-01-15T10:12:39;8.37;;;5.23;;
14754;SDS011;7469;50.906;6.952;2024-01-15T10:15:09;10.80;;;6.23;;
14754;SDS011;7469;50.906;6.952;2024-01-15T10:17:38;8.87;;;5.30;;
14754;SDS011;7469;50.906;6.952;2024-01-15T10:20:07;8.90;;;5.60;;
14754;SDS011;7469;50.906;6.952;2024-01-15T10:22:39;12.33;;;4.90;;
14754;SDS011;7469;50.906;6.952;2024-01-15T10:25:11;10.30;;;5.33;;
14754;SDS011;7469;50.906;6.952;2024-01-15T10:27:39;6.10;;;5.10;;
14754;SDS011;7469;50.906;6.952;2024-01-15T10:30:08;12.40;;;5.60;;
14754;SDS011;7469;50.906;6.952;2024-01-15T10:32:36;9.50;;;5.10;;
14754;SDS011;7469;50.906;6.952;2024-01-15T10:35:04;8.97;;;4.90;;
14754;SDS011;7469;50.906;6.952;2024-01-15T10:37:35;7.57;;;5.17;;
14754;SDS011;7469;50.906;6.952;2024-01-15T10:40:03;7.43;;;5.50;;
14754;SDS011;7469;50.906;6.952;2024-01-15T10:42:36;6.47;;;5.23;;
14754;SDS011;7469;50.906;6.952;2024-01-15T10:45:04;6.80;;;4.80;;
14754;SDS011;7469;50.906;6.952;2024-01-15T10:47:35;7.90;;;5.80;;
14754;SDS011;7469;50.906;6.952;2024-01-15T10:50:04;7.27;;;5.33;;
14754;SDS011;7469;50.906;6.952;2024-01-15T10:52:33;8.07;;;4.70;;
14754;SDS011;7469;50.906;6.952;2024-01-15T10:55:02;6.40;;;4.50;;
14754;SDS011;7469;50.906;6.952;2024-01-15T10:57:39;4.83;;;4.00;;
14754;SDS011;7469;50.906;6.952;2024-01-15T11:00:07;5.00;;;4.50;;
14754;SDS011;7469;50.906;6.952;2024-01-15T11:02:41;7.10;;;4.57;;
14754;SDS011;7469;50.906;6.952;2024-01-15T11:05:11;5.23;;;4.40;;
14754;SDS011;7469;50.906;6.952;2024-01-15T11:07:39;5.20;;;4.00;;
14754;SDS011;7469;50.906;6.952;2024-01-15T11:10:08;6.07;;;3.90;;
14754;SDS011;7469;50.906;6.952;2024-01-15T11:13:13;6.03;;;4.00;;
14754;SDS011;7469;50.906;6.952;2024-01-15T11:15:57;6.83;;;3.83;;
14754;SDS011;7469;50.906;6.952;2024-01-15T11:18:29;5.73;;;4.13;;
14754;SDS011;7469;50.906;6.952;2024-01-15T11:21:20;5.17;;;4.27;;
14754;SDS011;7469;50.906;6.952;2024-01-15T11:23:54;6.63;;;4.30;;
14754;SDS011;7469;50.906;6.952;2024-01-15T11:26:28;4.97;;;4.17;;
14754;SDS011;7469;50.906;6.952;2024-01-15T11:29:07;6.37;;;4.17;;
14754;SDS011;7469;50.906;6.952;2024-01-15T11:37:24;8.90;;;5.03;;
14754;SDS011;7469;50.906;6.952;2024-01-15T11:39:54;5.93;;;5.33;;
14754;SDS011;7469;50.906;6.952;2024-01-15T11:42:23;6.77;;;6.00;;
14754;SDS011;7469;50.906;6.952;2024-01-15T11:44:52;7.03;;;6.33;;
14754;SDS011;7469;50.906;6.952;2024-01-15T11:47:29;6.83;;;6.13;;
14754;SDS011;7469;50.906;6.952;2024-01-15T11:50:22;8.27;;;6.77;;
14754;SDS011;7469;50.906;6.952;2024-01-15T11:52:51;7.30;;;6.50;;
14754;SDS011;7469;50.906;6.952;2024-01-15T11:55:33;7.03;;;6.33;;
14754;SDS011;7469;50.906;6.952;2024-01-15T11:58:02;7.70;;;6.60;;
14754;SDS011;7469;50.906;6.952;2024-01-15T12:00:40;7.63;;;6.40;;
14754;SDS011;7469;50.906;6.952;2024-01-15T12:03:10;11.27;;;6.63;;
14754;SDS011;7469;50.906;6.952;2024-01-15T12:05:38;7.50;;;6.57;;
14754;SDS011;7469;50.906;6.952;2024-01-15T12:08:08;9.17;;;6.67;;
14754;SDS011;7469;50.906;6.952;2024-01-15T12:10:38;9.50;;;6.80;;
14754;SDS011;7469;50.906;6.952;2024-01-15T12:13:10;10.63;;;7.03;;
14754;SDS011;7469;50.906;6.952;2024-01-15T12:15:41;11.13;;;6.90;;
14754;SDS011;7469;50.906;6.952;2024-01-15T12:18:11;10.87;;;6.97;;
14754;SDS011;7469;50.906;6.952;2024-01-15T12:20:42;13.83;;;7.13;;
14754;SDS011;7469;50.906;6.952;2024-01-15T12:23:13;11.00;;;6.67;;
14754;SDS011;7469;50.906;6.952;2024-01-15T12:25:41;11.53;;;7.27;;
14754;SDS011;7469;50.906;6.952;2024-01-15T12:28:09;11.60;;;6.83;;
14754;SDS011;7469;50.906;6.952;2024-01-15T12:30:37;18.20;;;7.07;;
14754;SDS011;7469;50.906;6.952;2024-01-15T12:33:08;9.57;;;6.17;;
14754;SDS011;7469;50.906;6.952;2024-01-15T12:35:36;11.80;;;6.30;;
14754;SDS011;7469;50.906;6.952;2024-01-15T12:38:05;8.97;;;6.03;;
14754;SDS011;7469;50.906;6.952;2024-01-15T12:40:33;10.47;;;6.20;;
14754;SDS011;7469;50.906;6.952;2024-01-15T12:43:03;10.53;;;5.40;;
14754;SDS011;7469;50.906;6.952;2024-01-15T12:45:32;14.83;;;5.77;;
14754;SDS011;7469;50.906;6.952;2024-01-15T12:48:02;11.47;;;4.90;;
14754;SDS011;7469;50.906;6.952;2024-01-15T12:50:34;11.00;;;5.23;;
14754;SDS011;7469;50.906;6.952;2024-01-15T12:53:02;14.13;;;4.40;;
14754;SDS011;7469;50.906;6.952;2024-01-15T12:55:30;15.80;;;4.70;;
14754;SDS011;7469;50.906;6.952;2024-01-15T12:58:00;9.20;;;4.13;;
14754;SDS011;7469;50.906;6.952;2024-01-15T13:00:28;7.17;;;4.00;;
14754;SDS011;7469;50.906;6.952;2024-01-15T13:02:56;11.83;;;4.03;;
14754;SDS011;7469;50.906;6.952;2024-01-15T13:05:24;8.80;;;3.67;;
14754;SDS011;7469;50.906;6.952;2024-01-15T13:07:56;8.90;;;4.50;;
14754;SDS011;7469;50.906;6.952;2024-01-15T13:10:25;9.33;;;4.20;;
14754;SDS011;7469;50.906;6.952;2024-01-15T13:12:56;13.37;;;4.30;;
14754;SDS011;7469;50.906;6.952;2024-01-15T13:15:24;10.60;;;4.63;;
14754;SDS011;7469;50.906;6.952;2024-01-15T13:17:53;6.43;;;3.67;;
14754;SDS011;7469;50.906;6.952;2024-01-15T13:20:21;8.90;;;3.47;;
14754;SDS011;7469;50.906;6.952;2024-01-15T13:22:49;9.70;;;3.53;;
14754;SDS011;7469;50.906;6.952;2024-01-15T13:25:19;7.90;;;3.97;;
14754;SDS011;7469;50.906;6.952;2024-01-15T13:27:47;5.67;;;3.40;;
14754;SDS011;7469;50.906;6.952;2024-01-15T13:30:16;7.70;;;3.47;;
14754;SDS011;7469;50.906;6.952;2024-01-15T13:32:44;9.80;;;4.13;;
14754;SDS011;7469;50.906;6.952;2024-01-15T13:35:13;8.27;;;3.77;;
14754;SDS011;7469;50.906;6.952;2024-01-15T13:37:41;10.17;;;3.87;;
14754;SDS011;7469;50.906;6.952;2024-01-15T13:40:09;7.27;;;3.17;;
14754;SDS011;7469;50.906;6.952;2024-01-15T13:42:45;8.30;;;3.13;;
14754;SDS011;7469;50.906;6.952;2024-01-15T13:45:14;8.63;;;3.57;;
14754;SDS011;7469;50.906;6.952;2024-01-15T13:47:42;9.37;;;2.57;;
14754;SDS011;7469;50.906;6.952;2024-01-15T13:50:10;5.93;;;2.47;;
14754;SDS011;7469;50.906;6.952;2024-01-15T13:52:39;6.57;;;2.37;;
14754;SDS011;7469;50.906;6.952;2024-01-15T13:55:07;7.27;;;1.97;;
14754;SDS011;7469;50.906;6.952;2024-01-15T13:57:36;3.80;;;1.97;;
14754;SDS011;7469;50.906;6.952;2024-01-15T14:00:06;4.73;;;1.80;;
14754;SDS011;7469;50.906;6.952;2024-01-15T14:02:39;2.63;;;1.80;;
14754;SDS011;7469;50.906;6.952;2024-01-15T14:05:07;6.83;;;1.60;;
14754;SDS011;7469;50.906;6.952;2024-01-15T14:07:36;4.00;;;1.57;;
14754;SDS011;7469;50.906;6.952;2024-01-15T14:10:05;2.57;;;1.60;;
14754;SDS011;7469;50.906;6.952;2024-01-15T14:12:35;1.53;;;1.30;;
14754;SDS011;7469;50.906;6.952;2024-01-15T14:15:03;3.47;;;1.70;;
14754;SDS011;7469;50.906;6.952;2024-01-15T14:17:33;3.53;;;1.27;;
14754;SDS011;7469;50.906;6.952;2024-01-15T14:20:02;3.07;;;1.50;;
14754;SDS011;7469;50.906;6.952;2024-01-15T14:22:32;4.93;;;1.30;;
14754;SDS011;7469;50.906;6.952;2024-01-15T14:25:00;2.53;;;1.60;;
14754;SDS011;7469;50.906;6.952;2024-01-15T14:27:28;1.77;;;1.50;;
14754;SDS011;7469;50.906;6.952;2024-01-15T14:29:56;3.90;;;1.80;;
14754;SDS011;7469;50.906;6.952;2024-01-15T14:32:26;5.20;;;1.73;;
14754;SDS011;7469;50.906;6.952;2024-01-15T14:34:54;6.80;;;1.93;;
14754;SDS011;7469;50.906;6.952;2024-01-15T14:37:23;3.50;;;1.90;;
14754;SDS011;7469;50.906;6.952;2024-01-15T14:39:51;4.30;;;1.40;;
14754;SDS011;7469;50.906;6.952;2024-01-15T14:42:19;2.87;;;1.50;;
14754;SDS011;7469;50.906;6.952;2024-01-15T14:44:47;1.77;;;1.50;;
14754;SDS011;7469;50.906;6.952;2024-01-15T14:47:15;2.57;;;1.63;;
14754;SDS011;7469;50.906;6.952;2024-01-15T14:49:44;3.73;;;1.83;;
14754;SDS011;7469;50.906;6.952;2024-01-15T14:52:12;2.23;;;1.60;;
14754;SDS011;7469;50.906;6.952;2024-01-15T14:54:40;5.70;;;1.83;;
14754;SDS011;7469;50.906;6.952;2024-01-15T14:57:08;2.93;;;1.50;;
14754;SDS011;7469;50.906;6.952;2024-01-15T14:59:36;4.33;;;1.93;;